Time;durP1;ratioP1;P1;durP2;ratioP2;P2;SDS_P1;SDS_P2;PMS_P1;PMS_P2;Temp;Humidity;BMP_temperature;BMP_pressure;BME280_temperature;BME280_humidity;BME280_pressure;Samples;Min_cycle;Max_cycle;Signal;HPM_P1;HPM_P2
2022/11/02 00:00:27;;;;;;;5.67;2.47;;;11.80;99.90;;;;;;5095708;28;20914;-73
2022/11/02 00:02:52;;;;;;;4.13;2.00;;;11.70;99.90;;;;;;5095745;28;20399;-72
2022/11/02 00:05:23;;;;;;;2.53;1.80;;;11.70;99.90;;;;;;5095968;28;20411;-73
2022/11/02 00:07:49;;;;;;;5.00;2.20;;;11.70;99.90;;;;;;5095861;28;20148;-74
2022/11/02 00:10:15;;;;;;;2.70;1.70;;;11.70;99.90;;;;;;5095904;28;20422;-72
2022/11/02 00:12:41;;;;;;;10.07;2.67;;;11.70;99.90;;;;;;5077940;28;20443;-73
2022/11/02 00:15:07;;;;;;;3.60;2.10;;;11.80;99.90;;;;;;5095366;28;20206;-73
2022/11/02 00:17:34;;;;;;;5.00;2.00;;;11.70;99.90;;;;;;5095625;28;20169;-73
2022/11/02 00:19:59;;;;;;;5.23;2.13;;;11.70;99.90;;;;;;5095488;28;20870;-73
2022/11/02 00:22:25;;;;;;;3.90;2.37;;;11.60;99.90;;;;;;5095768;28;20418;-73
2022/11/02 00:24:51;;;;;;;2.43;1.80;;;11.60;99.90;;;;;;5095453;28;20629;-74
2022/11/02 00:27:17;;;;;;;4.47;1.90;;;11.60;99.90;;;;;;5095388;28;20404;-73
2022/11/02 00:29:43;;;;;;;3.17;1.70;;;11.60;99.90;;;;;;5077156;28;20437;-73
2022/11/02 00:32:08;;;;;;;4.90;2.00;;;11.70;99.90;;;;;;5112784;28;20634;-72
2022/11/02 00:34:34;;;;;;;3.90;1.87;;;11.70;99.90;;;;;;5100938;28;20263;-73
2022/11/02 00:36:59;;;;;;;4.30;2.00;;;11.70;99.90;;;;;;5095249;28;20162;-73
2022/11/02 00:39:25;;;;;;;5.00;2.13;;;11.70;99.90;;;;;;5094917;28;20646;-72
2022/11/02 00:41:50;;;;;;;6.50;2.50;;;11.80;99.90;;;;;;5094964;28;20179;-73
2022/11/02 00:44:16;;;;;;;6.10;2.20;;;11.80;99.90;;;;;;5094968;28;20170;-72
2022/11/02 00:46:41;;;;;;;3.20;2.20;;;11.80;99.90;;;;;;5094427;28;20234;-73
2022/11/02 00:49:07;;;;;;;8.87;3.10;;;11.70;99.90;;;;;;5095049;28;20679;-73
2022/11/02 00:51:32;;;;;;;2.80;1.73;;;11.60;99.90;;;;;;5095794;28;20245;-73
2022/11/02 00:53:58;;;;;;;3.73;1.87;;;11.70;99.90;;;;;;5094735;28;20193;-73
2022/11/02 00:56:23;;;;;;;2.53;1.30;;;11.60;99.90;;;;;;5066125;28;20213;-73
2022/11/02 00:58:49;;;;;;;4.80;2.00;;;11.70;99.90;;;;;;5075348;28;20227;-71
2022/11/02 01:01:14;;;;;;;4.17;2.63;;;11.80;99.90;;;;;;5105510;28;20252;-72
2022/11/02 01:03:40;;;;;;;5.30;2.20;;;11.90;99.90;;;;;;5115151;28;20200;-73
2022/11/02 01:06:11;;;;;;;3.10;1.80;;;11.90;99.90;;;;;;5114664;28;20240;-73
2022/11/02 01:08:37;;;;;;;4.07;2.00;;;11.90;99.90;;;;;;5115186;28;20282;-73
2022/11/02 01:11:11;;;;;;;2.70;1.90;;;11.90;99.90;;;;;;5115089;28;20446;-74
2022/11/02 01:13:36;;;;;;;2.03;1.80;;;11.90;99.90;;;;;;5096490;28;20226;-73
2022/11/02 01:16:03;;;;;;;4.00;2.30;;;11.90;99.90;;;;;;5114614;28;20449;-73
2022/11/02 01:18:29;;;;;;;7.50;2.80;;;11.90;99.90;;;;;;5114429;28;20201;-72
2022/11/02 01:20:56;;;;;;;5.53;2.73;;;11.90;99.90;;;;;;5114675;28;20403;-71
2022/11/02 01:23:22;;;;;;;7.33;2.47;;;11.80;99.90;;;;;;5114611;28;20419;-73
2022/11/02 01:25:47;;;;;;;5.13;2.97;;;11.70;99.90;;;;;;5114955;28;20877;-72
2022/11/02 01:28:13;;;;;;;5.87;2.50;;;11.80;99.90;;;;;;5114557;28;20203;-73
2022/11/02 01:30:38;;;;;;;6.47;2.60;;;11.70;99.90;;;;;;5114054;28;20164;-73
2022/11/02 01:33:05;;;;;;;5.43;2.73;;;11.70;99.90;;;;;;5113972;28;20685;-73
2022/11/02 01:35:31;;;;;;;4.73;2.70;;;11.70;99.90;;;;;;5114479;28;20180;-72
2022/11/02 01:37:56;;;;;;;3.50;2.10;;;11.70;99.90;;;;;;5114274;28;20423;-72
2022/11/02 01:40:22;;;;;;;5.80;2.87;;;11.90;99.90;;;;;;5114317;28;20532;-72
2022/11/02 01:42:47;;;;;;;7.60;2.40;;;11.90;99.90;;;;;;5114133;28;20184;-72
2022/11/02 01:45:13;;;;;;;6.43;2.43;;;12.00;99.90;;;;;;5114307;28;20170;-73
2022/11/02 01:47:44;;;;;;;4.23;1.93;;;12.00;99.90;;;;;;5114264;28;20205;-72
2022/11/02 01:50:14;;;;;;;4.93;3.00;;;12.10;99.90;;;;;;5114412;28;20386;-73
2022/11/02 01:52:40;;;;;;;3.20;2.13;;;12.20;99.90;;;;;;5114201;28;20449;-73
2022/11/02 01:55:18;;;;;;;4.30;2.60;;;12.20;99.90;;;;;;5114188;28;20406;-73
2022/11/02 01:57:47;;;;;;;4.13;2.37;;;12.20;99.90;;;;;;5114450;28;20150;-73
2022/11/02 02:00:15;;;;;;;3.73;2.33;;;12.10;99.90;;;;;;5114933;28;20411;-73
2022/11/02 02:02:52;;;;;;;6.60;2.90;;;12.20;99.90;;;;;;5114916;28;20485;-74
2022/11/02 02:05:20;;;;;;;5.97;2.60;;;12.30;99.90;;;;;;5097463;28;20422;-73
2022/11/02 02:07:47;;;;;;;4.63;2.93;;;12.40;99.90;;;;;;5115582;28;20481;-73
2022/11/02 02:10:13;;;;;;;3.57;2.37;;;12.40;99.90;;;;;;5115659;28;20391;-74
2022/11/02 02:12:41;;;;;;;6.50;2.63;;;12.40;99.90;;;;;;5115896;28;20963;-71
2022/11/02 02:15:07;;;;;;;7.70;2.17;;;12.40;99.90;;;;;;5115598;28;20403;-72
2022/11/02 02:17:43;;;;;;;2.90;2.50;;;12.40;99.90;;;;;;5114097;28;20404;-72
2022/11/02 02:20:18;;;;;;;4.10;2.20;;;12.40;99.90;;;;;;5096995;28;20519;-73
2022/11/02 02:23:06;;;;;;;5.27;2.70;;;12.40;99.90;;;;;;5115160;28;20899;-73
2022/11/02 02:26:05;;;;;;;3.00;2.07;;;12.40;99.90;;;;;;5115509;28;20972;-73
2022/11/02 02:28:42;;;;;;;3.77;2.27;;;12.40;99.90;;;;;;5115353;28;20431;-73
2022/11/02 02:31:27;;;;;;;7.40;2.93;;;12.40;99.90;;;;;;5114103;28;20418;-72
2022/11/02 02:33:53;;;;;;;4.93;2.70;;;12.40;99.90;;;;;;5114979;28;20439;-72
2022/11/02 02:36:46;;;;;;;6.20;1.87;;;12.40;99.90;;;;;;5103096;28;20411;-73
2022/11/02 02:39:37;;;;;;;5.63;2.80;;;12.40;99.90;;;;;;5095117;28;20186;-73
2022/11/02 02:42:39;;;;;;;3.67;2.20;;;12.40;99.90;;;;;;5094613;28;20379;-74
2022/11/02 02:45:19;;;;;;;5.07;2.53;;;12.20;99.90;;;;;;5064242;28;20853;-73
2022/11/02 02:47:57;;;;;;;4.53;2.40;;;12.00;99.90;;;;;;5094253;28;20500;-73
2022/11/02 02:50:28;;;;;;;5.97;3.17;;;11.90;99.90;;;;;;5095277;28;20398;-72
2022/11/02 02:52:57;;;;;;;3.20;2.40;;;12.00;99.90;;;;;;5094849;28;20436;-74
2022/11/02 02:55:29;;;;;;;5.20;2.90;;;12.20;99.90;;;;;;5099257;28;20821;-73
2022/11/02 02:57:57;;;;;;;2.93;2.50;;;12.40;99.90;;;;;;5101758;28;20427;-74
2022/11/02 03:00:22;;;;;;;3.67;2.13;;;12.50;99.90;;;;;;5102140;28;20452;-72
2022/11/02 03:02:59;;;;;;;6.17;2.37;;;12.40;99.90;;;;;;5121707;28;20778;-72
2022/11/02 03:05:28;;;;;;;5.23;1.93;;;12.40;99.90;;;;;;5123012;28;20163;-72
2022/11/02 03:07:55;;;;;;;2.67;1.80;;;12.50;99.90;;;;;;5122705;28;20405;-71
2022/11/02 03:10:40;;;;;;;6.30;2.10;;;12.50;99.90;;;;;;5128409;28;20406;-72
2022/11/02 03:13:13;;;;;;;6.80;2.57;;;12.50;99.90;;;;;;5132588;28;20463;-72
2022/11/02 03:16:00;;;;;;;5.07;2.27;;;12.50;99.90;;;;;;5128812;28;20461;-72
2022/11/02 03:18:52;;;;;;;3.17;2.00;;;12.50;99.90;;;;;;5127368;28;20446;-74
2022/11/02 03:21:27;;;;;;;5.90;2.63;;;12.60;99.90;;;;;;5122072;28;20384;-73
2022/11/02 03:24:11;;;;;;;3.60;1.80;;;12.50;99.90;;;;;;5119087;28;20465;-72
2022/11/02 03:27:13;;;;;;;4.50;2.50;;;12.60;99.90;;;;;;5118844;28;20387;-73
2022/11/02 03:29:54;;;;;;;2.20;1.60;;;12.60;99.90;;;;;;5100227;28;20490;-70
2022/11/02 03:32:29;;;;;;;7.40;2.53;;;12.60;99.90;;;;;;5114938;28;20505;-73
2022/11/02 03:34:57;;;;;;;3.57;1.97;;;12.60;99.90;;;;;;5117115;28;20402;-73
2022/11/02 03:37:35;;;;;;;4.70;1.93;;;12.70;99.90;;;;;;5117089;28;20442;-72
2022/11/02 03:40:25;;;;;;;2.67;1.70;;;12.80;99.90;;;;;;5116755;28;20944;-72
2022/11/02 03:42:52;;;;;;;2.97;1.97;;;12.90;99.90;;;;;;5116920;28;20762;-72
2022/11/02 03:45:22;;;;;;;3.07;2.03;;;12.80;99.90;;;;;;5116731;28;20496;-74
2022/11/02 03:47:58;;;;;;;4.10;1.87;;;12.80;99.90;;;;;;5107916;28;20508;-74
2022/11/02 03:50:26;;;;;;;4.83;2.13;;;12.70;99.90;;;;;;5087223;28;20456;-73
2022/11/02 03:53:00;;;;;;;3.63;2.20;;;12.80;99.90;;;;;;5096099;28;20535;-72
2022/11/02 03:55:34;;;;;;;2.40;1.63;;;12.90;99.90;;;;;;5096443;28;20395;-72
2022/11/02 03:58:00;;;;;;;2.90;1.60;;;12.90;99.90;;;;;;5096042;28;20524;-73
2022/11/02 04:00:28;;;;;;;3.00;1.50;;;12.90;99.90;;;;;;5099345;28;20496;-73
2022/11/02 04:02:57;;;;;;;2.30;1.57;;;13.00;99.90;;;;;;5115884;28;20181;-71
2022/11/02 04:05:31;;;;;;;2.70;1.60;;;12.90;99.90;;;;;;5115896;28;20441;-72
2022/11/02 04:16:12;;;;;;;6.90;2.10;;;13.00;99.90;;;;;;5115845;28;20390;-73
2022/11/02 04:21:21;;;;;;;8.47;2.43;;;12.90;99.90;;;;;;5116031;28;20175;-73
2022/11/02 04:26:31;;;;;;;3.93;2.00;;;13.00;99.90;;;;;;5115842;28;20217;-73
2022/11/02 04:28:56;;;;;;;4.10;1.70;;;12.90;99.90;;;;;;5115685;28;20986;-72
2022/11/02 04:31:22;;;;;;;4.53;2.13;;;12.80;99.90;;;;;;5103362;28;20180;-71
2022/11/02 04:33:47;;;;;;;5.37;2.23;;;12.90;99.90;;;;;;5094930;28;20197;-72
2022/11/02 04:36:13;;;;;;;3.90;1.30;;;12.90;99.90;;;;;;5095555;28;20531;-73
2022/11/02 04:38:39;;;;;;;3.43;1.43;;;12.90;99.90;;;;;;5095003;28;20612;-72
2022/11/02 04:43:54;;;;;;;3.37;1.77;;;12.90;99.90;;;;;;5095658;28;20165;-73
2022/11/02 04:46:21;;;;;;;2.10;1.57;;;12.80;99.90;;;;;;5094798;28;20980;-74
2022/11/02 04:48:47;;;;;;;3.80;1.70;;;12.80;99.90;;;;;;5094664;28;20202;-73
2022/11/02 04:51:13;;;;;;;4.20;1.97;;;12.80;99.90;;;;;;5076979;28;20468;-73
2022/11/02 04:53:38;;;;;;;4.20;2.10;;;12.70;99.90;;;;;;5094991;28;20599;-72
2022/11/02 04:56:04;;;;;;;4.57;2.53;;;12.60;99.90;;;;;;5094822;28;20461;-72
2022/11/02 04:58:30;;;;;;;3.87;2.20;;;12.50;99.90;;;;;;5094561;28;20186;-73
2022/11/02 05:00:55;;;;;;;4.17;2.00;;;12.50;99.90;;;;;;5089178;28;20412;-72
2022/11/02 05:03:21;;;;;;;3.90;2.30;;;12.50;99.90;;;;;;5094417;28;20204;-73
2022/11/02 05:05:47;;;;;;;3.10;1.67;;;12.60;99.90;;;;;;5094920;28;20711;-73
2022/11/02 05:08:12;;;;;;;3.57;1.73;;;12.50;99.90;;;;;;5094888;28;20252;-71
2022/11/02 05:10:38;;;;;;;3.93;2.00;;;12.50;99.90;;;;;;5094943;28;20207;-73
2022/11/02 05:13:03;;;;;;;4.70;1.93;;;12.40;99.90;;;;;;5094695;28;20568;-72
2022/11/02 05:15:29;;;;;;;3.67;1.70;;;12.40;99.90;;;;;;5094303;28;20165;-73
2022/11/02 05:20:21;;;;;;;3.00;1.57;;;12.30;99.90;;;;;;5111978;22;20714;-73
2022/11/02 05:22:46;;;;;;;2.80;1.80;;;12.30;99.90;;;;;;5074353;28;20408;-73
2022/11/02 05:25:12;;;;;;;3.70;2.00;;;12.30;99.90;;;;;;5073813;28;20166;-73
2022/11/02 05:27:38;;;;;;;2.73;1.50;;;12.30;99.90;;;;;;5073688;28;20166;-73
2022/11/02 05:30:04;;;;;;;2.60;1.73;;;12.30;99.90;;;;;;5072721;28;20187;-76
2022/11/02 05:32:30;;;;;;;3.50;1.70;;;12.30;99.90;;;;;;5073412;28;20177;-74
2022/11/02 05:34:56;;;;;;;4.63;1.97;;;12.20;99.90;;;;;;5073598;28;20409;-74
2022/11/02 05:37:21;;;;;;;5.33;2.13;;;12.20;99.90;;;;;;5073695;28;20223;-74
2022/11/02 05:39:47;;;;;;;3.40;2.77;;;12.20;99.90;;;;;;5074193;28;20600;-74
2022/11/02 05:42:12;;;;;;;4.00;1.77;;;12.20;99.90;;;;;;5073698;28;20188;-74
2022/11/02 05:44:38;;;;;;;3.33;1.93;;;12.20;99.90;;;;;;5073485;28;20197;-74
2022/11/02 05:47:04;;;;;;;4.00;1.40;;;12.20;99.90;;;;;;5055340;28;20174;-74
2022/11/02 05:49:29;;;;;;;3.20;2.20;;;12.20;99.90;;;;;;5072976;28;20268;-74
2022/11/02 05:51:55;;;;;;;8.13;2.63;;;12.30;99.90;;;;;;5073317;28;20404;-74
2022/11/02 05:54:20;;;;;;;2.23;1.80;;;12.20;99.90;;;;;;5073176;28;20273;-74
2022/11/02 05:56:46;;;;;;;4.87;1.97;;;12.20;99.90;;;;;;5073465;28;20653;-74
2022/11/02 05:59:12;;;;;;;7.10;2.70;;;12.20;99.90;;;;;;5073232;28;20225;-74
2022/11/02 06:01:38;;;;;;;2.40;1.60;;;12.10;99.90;;;;;;5098936;28;20269;-74
2022/11/02 06:04:04;;;;;;;5.37;2.13;;;12.20;99.90;;;;;;5113464;28;20170;-74
2022/11/02 06:06:29;;;;;;;5.40;2.17;;;12.10;99.90;;;;;;5113955;28;20176;-74
2022/11/02 06:08:55;;;;;;;3.43;1.63;;;12.10;99.90;;;;;;5113501;28;20475;-74
2022/11/02 06:11:21;;;;;;;5.27;2.30;;;12.20;99.90;;;;;;5095483;28;20165;-74
2022/11/02 06:13:49;;;;;;;5.07;2.23;;;12.10;99.90;;;;;;5113576;28;20188;-75
2022/11/02 06:16:16;;;;;;;5.23;2.20;;;12.20;99.90;;;;;;5113832;28;20618;-74
2022/11/02 06:18:42;;;;;;;2.90;1.80;;;12.20;99.90;;;;;;5113159;28;20489;-74
2022/11/02 06:21:08;;;;;;;4.07;2.37;;;12.30;99.90;;;;;;5113537;28;20402;-76
2022/11/02 06:23:34;;;;;;;3.70;1.87;;;12.20;99.90;;;;;;5095578;28;20403;-75
2022/11/02 06:26:01;;;;;;;4.10;2.60;;;12.30;99.90;;;;;;5100601;28;20415;-75
2022/11/02 06:28:27;;;;;;;6.10;2.07;;;12.30;99.90;;;;;;5093607;28;20415;-75
2022/11/02 06:30:53;;;;;;;4.97;2.13;;;12.30;99.90;;;;;;5097517;28;20928;-75
2022/11/02 06:33:19;;;;;;;5.33;2.30;;;12.30;99.90;;;;;;5113311;28;20442;-75
2022/11/02 06:35:46;;;;;;;5.10;2.30;;;12.40;99.90;;;;;;5113475;28;20161;-74
2022/11/02 06:38:12;;;;;;;8.17;2.17;;;12.40;99.90;;;;;;5113604;28;20772;-75
2022/11/02 06:40:38;;;;;;;6.67;2.50;;;12.50;99.90;;;;;;5114013;28;20399;-75
2022/11/02 06:43:04;;;;;;;3.43;2.03;;;12.60;99.90;;;;;;5113527;28;20172;-75
2022/11/02 06:45:30;;;;;;;5.97;2.20;;;12.70;99.90;;;;;;5113157;28;20415;-74
2022/11/02 06:47:55;;;;;;;4.13;1.87;;;12.80;99.90;;;;;;5113609;28;20656;-75
2022/11/02 06:50:23;;;;;;;8.93;2.70;;;12.90;99.90;;;;;;5114064;28;20542;-74
2022/11/02 06:52:48;;;;;;;4.63;2.30;;;13.10;99.90;;;;;;5113685;28;20197;-75
2022/11/02 06:55:14;;;;;;;5.67;2.27;;;13.20;99.90;;;;;;5113637;28;20905;-73
2022/11/02 06:57:41;;;;;;;4.73;2.37;;;13.20;99.90;;;;;;5113408;28;20168;-74
2022/11/02 07:00:12;;;;;;;5.13;1.93;;;13.30;99.90;;;;;;5113266;28;20413;-73
2022/11/02 07:02:39;;;;;;;7.50;2.40;;;13.20;99.90;;;;;;5113504;28;20399;-74
2022/11/02 07:05:05;;;;;;;9.30;2.00;;;13.30;99.90;;;;;;5117245;28;20394;-72
2022/11/02 07:07:31;;;;;;;6.57;2.70;;;13.50;99.90;;;;;;5116990;28;20404;-73
2022/11/02 07:09:56;;;;;;;6.43;2.33;;;13.50;99.90;;;;;;5117044;28;20478;-73
2022/11/02 07:12:22;;;;;;;5.93;2.13;;;13.30;99.90;;;;;;5116984;28;20178;-73
2022/11/02 07:14:48;;;;;;;4.70;2.20;;;13.60;99.90;;;;;;5116903;28;20176;-73
2022/11/02 07:17:13;;;;;;;4.77;2.00;;;13.70;99.90;;;;;;5098320;28;20223;-73
2022/11/02 07:19:39;;;;;;;6.80;2.55;;;13.80;99.90;;;;;;5098545;28;20472;-72
2022/11/02 07:22:04;;;;;;;4.80;2.27;;;13.90;99.90;;;;;;5116798;28;20185;-73
2022/11/02 07:24:30;;;;;;;8.10;2.87;;;13.70;99.90;;;;;;5116603;28;20232;-74
2022/11/02 07:26:55;;;;;;;4.97;2.10;;;13.80;99.90;;;;;;5117302;28;20175;-74
2022/11/02 07:29:21;;;;;;;9.97;3.20;;;13.90;99.90;;;;;;5116801;28;20193;-74
2022/11/02 07:31:47;;;;;;;5.70;3.07;;;14.10;99.90;;;;;;5115187;28;20179;-73
2022/11/02 07:34:13;;;;;;;4.83;2.10;;;14.20;99.90;;;;;;5116344;28;20194;-73
2022/11/02 07:36:38;;;;;;;10.10;2.87;;;14.00;99.90;;;;;;5116626;28;20180;-74
2022/11/02 07:39:06;;;;;;;10.33;8.40;;;14.00;99.90;;;;;;5116504;28;20419;-73
2022/11/02 07:41:32;;;;;;;8.53;3.70;;;14.10;99.90;;;;;;5116779;28;20176;-76
2022/11/02 07:43:58;;;;;;;125.93;97.57;;;14.00;99.90;;;;;;5116325;28;20412;-76
2022/11/02 07:46:23;;;;;;;34.33;24.27;;;14.20;99.90;;;;;;5116267;28;20408;-74
2022/11/02 07:48:49;;;;;;;35.97;22.27;;;14.30;99.90;;;;;;5115887;28;20580;-75
2022/11/02 07:51:14;;;;;;;7.40;4.40;;;14.30;99.90;;;;;;5098023;28;20662;-75
2022/11/02 07:53:40;;;;;;;6.63;5.00;;;14.30;99.90;;;;;;5116296;28;20240;-75
2022/11/02 07:56:06;;;;;;;7.40;5.20;;;14.40;99.90;;;;;;5116360;28;20171;-75
2022/11/02 07:58:32;;;;;;;9.53;4.00;;;14.40;99.90;;;;;;5116298;28;20205;-75
2022/11/02 08:00:59;;;;;;;8.30;5.93;;;14.30;99.90;;;;;;5118490;28;20404;-73
2022/11/02 08:03:25;;;;;;;9.57;2.50;;;14.40;99.90;;;;;;5115993;28;20408;-73
2022/11/02 08:05:51;;;;;;;6.80;3.33;;;14.60;99.90;;;;;;5116080;28;20489;-73
2022/11/02 08:08:19;;;;;;;4.87;2.40;;;14.50;99.90;;;;;;5115716;28;20447;-72
2022/11/02 08:10:46;;;;;;;7.17;2.27;;;14.40;99.90;;;;;;5115641;28;20420;-72
2022/11/02 08:13:14;;;;;;;5.80;2.50;;;14.70;99.90;;;;;;5085490;28;20793;-74
2022/11/02 08:15:40;;;;;;;4.03;2.13;;;14.90;99.90;;;;;;5093997;28;20410;-74
2022/11/02 08:18:18;;;;;;;8.40;2.97;;;14.80;99.90;;;;;;5095151;28;20437;-75
2022/11/02 08:20:47;;;;;;;5.83;2.93;;;14.40;99.90;;;;;;5095382;28;20393;-74
2022/11/02 08:23:14;;;;;;;6.23;3.60;;;14.50;99.90;;;;;;5095208;28;20909;-74
2022/11/02 08:25:41;;;;;;;4.57;2.40;;;14.70;99.90;;;;;;5095104;28;20470;-75
2022/11/02 08:28:13;;;;;;;5.10;2.40;;;14.80;99.90;;;;;;5095851;28;20521;-73
2022/11/02 08:30:38;;;;;;;5.67;2.63;;;15.10;99.90;;;;;;5097087;28;20432;-74
2022/11/02 08:33:06;;;;;;;11.40;2.67;;;14.90;99.90;;;;;;5102959;28;20545;-74
2022/11/02 08:35:33;;;;;;;4.20;2.13;;;14.90;99.90;;;;;;5095220;28;20619;-74
2022/11/02 08:37:59;;;;;;;6.50;2.13;;;15.00;99.90;;;;;;5094927;28;20493;-74
2022/11/02 08:40:25;;;;;;;3.93;2.20;;;14.90;99.90;;;;;;5094975;28;20457;-74
2022/11/02 08:43:17;;;;;;;10.63;2.37;;;14.90;99.90;;;;;;5095058;28;20208;-75
2022/11/02 08:45:44;;;;;;;4.70;2.27;;;15.10;99.90;;;;;;5091622;28;20432;-75
2022/11/02 08:48:10;;;;;;;4.30;1.73;;;14.80;99.90;;;;;;5094871;28;20419;-74
2022/11/02 08:50:36;;;;;;;5.80;2.13;;;14.70;99.90;;;;;;5094864;28;20865;-73
2022/11/02 08:53:02;;;;;;;7.97;3.17;;;14.80;99.90;;;;;;5094424;28;20200;-74
2022/11/02 08:55:27;;;;;;;5.33;2.30;;;14.90;99.90;;;;;;5095330;28;20630;-74
2022/11/02 08:57:55;;;;;;;6.10;2.97;;;15.00;99.90;;;;;;5094885;28;20252;-75
2022/11/02 09:00:23;;;;;;;6.17;2.83;;;15.10;99.90;;;;;;5094903;28;20213;-75
2022/11/02 09:03:04;;;;;;;5.90;2.47;;;15.10;99.90;;;;;;5114963;28;20400;-73
2022/11/02 09:05:32;;;;;;;5.50;2.00;;;15.10;99.90;;;;;;5115207;28;20404;-75
2022/11/02 09:07:59;;;;;;;9.40;2.07;;;15.20;99.90;;;;;;5114803;28;20403;-76
2022/11/02 09:10:27;;;;;;;4.30;2.13;;;15.40;99.90;;;;;;5096914;28;20449;-74
2022/11/02 09:12:52;;;;;;;6.63;2.57;;;15.60;99.90;;;;;;5114594;28;20955;-75
2022/11/02 09:15:18;;;;;;;5.83;2.70;;;15.60;99.90;;;;;;5114599;28;20427;-75
2022/11/02 09:17:48;;;;;;;5.93;2.37;;;15.60;99.90;;;;;;5114659;28;20792;-75
2022/11/02 09:20:19;;;;;;;7.17;2.70;;;15.40;99.90;;;;;;5114274;28;20324;-75
2022/11/02 09:22:44;;;;;;;3.60;1.70;;;15.20;99.90;;;;;;5114717;28;20390;-74
2022/11/02 09:25:11;;;;;;;2.70;1.70;;;15.20;99.90;;;;;;5114834;28;20924;-75
2022/11/02 09:27:37;;;;;;;4.13;2.17;;;15.30;99.90;;;;;;5114552;28;20164;-75
2022/11/02 09:30:03;;;;;;;5.00;1.77;;;15.40;99.90;;;;;;5115392;28;20516;-73
2022/11/02 09:32:32;;;;;;;2.40;1.60;;;15.50;99.90;;;;;;5095984;28;20654;-73
2022/11/02 09:34:59;;;;;;;5.57;2.40;;;15.50;99.90;;;;;;5114939;28;20395;-74
2022/11/02 09:37:25;;;;;;;5.23;1.60;;;15.50;99.90;;;;;;5114152;28;20448;-74
2022/11/02 09:39:51;;;;;;;4.53;1.93;;;15.60;99.90;;;;;;5114167;28;20791;-74
2022/11/02 09:42:42;;;;;;;4.00;1.77;;;15.60;99.90;;;;;;5114202;28;20397;-70
2022/11/02 09:45:13;;;;;;;4.37;1.83;;;16.00;99.90;;;;;;5114304;28;20151;-71
2022/11/02 09:48:00;;;;;;;5.20;1.90;;;16.40;99.90;;;;;;5113899;28;20382;-71
2022/11/02 09:50:42;;;;;;;3.70;1.87;;;16.40;99.90;;;;;;5114312;28;20399;-72
2022/11/02 09:53:11;;;;;;;3.90;1.57;;;16.50;99.90;;;;;;5113617;28;20438;-73
2022/11/02 09:55:51;;;;;;;3.97;1.70;;;16.30;99.90;;;;;;5114510;28;20846;-73
2022/11/02 09:58:23;;;;;;;9.63;5.57;;;16.40;99.90;;;;;;5113991;28;20390;-73
2022/11/02 10:00:53;;;;;;;4.77;1.87;;;16.40;99.90;;;;;;5113587;28;20413;-73
2022/11/02 10:03:51;;;;;;;4.37;1.80;;;16.20;99.90;;;;;;5113858;28;20444;-72
2022/11/02 10:06:20;;;;;;;3.83;1.50;;;16.30;99.90;;;;;;5113792;28;20501;-73
2022/11/02 10:09:08;;;;;;;3.20;1.80;;;16.30;99.90;;;;;;5113611;28;20430;-73
2022/11/02 10:11:37;;;;;;;7.37;2.87;;;16.40;99.90;;;;;;5113804;28;20455;-73
2022/11/02 10:14:14;;;;;;;8.87;1.97;;;16.40;99.90;;;;;;5113586;28;20442;-73
2022/11/02 10:17:16;;;;;;;8.73;2.00;;;16.40;99.90;;;;;;5113867;28;20509;-74
2022/11/02 10:19:49;;;;;;;5.83;2.20;;;16.40;99.90;;;;;;5116241;28;20437;-74
2022/11/02 10:22:15;;;;;;;7.20;2.47;;;16.40;99.90;;;;;;5113967;28;20379;-74
2022/11/02 10:24:45;;;;;;;8.40;3.00;;;16.80;99.90;;;;;;5113476;28;20431;-73
2022/11/02 10:27:27;;;;;;;6.97;1.83;;;16.90;99.90;;;;;;5113961;28;20775;-74
2022/11/02 10:30:11;;;;;;;5.27;2.27;;;16.80;99.90;;;;;;5101064;28;20939;-74
2022/11/02 10:32:39;;;;;;;8.60;2.67;;;16.60;99.90;;;;;;5109463;28;20454;-73
2022/11/02 10:35:17;;;;;;;3.83;1.90;;;16.80;99.90;;;;;;5113177;28;20394;-76
2022/11/02 10:37:54;;;;;;;5.67;1.80;;;16.80;99.90;;;;;;5114334;28;20878;-75
2022/11/02 10:40:26;;;;;;;4.47;1.87;;;16.60;99.90;;;;;;5103397;28;20449;-79
2022/11/02 10:42:59;;;;;;;7.23;1.70;;;16.70;99.90;;;;;;5120236;28;20390;-73
2022/11/02 10:45:44;;;;;;;2.47;1.50;;;16.60;99.90;;;;;;5118041;28;20444;-74
2022/11/02 10:48:54;;;;;;;4.10;1.47;;;17.00;99.90;;;;;;5117296;28;20933;-74
2022/11/02 10:51:20;;;;;;;4.23;1.90;;;17.30;99.90;;;;;;5015493;28;20464;-75
2022/11/02 10:53:51;;;;;;;5.77;2.00;;;17.00;99.90;;;;;;5014794;28;20509;-72
2022/11/02 10:56:22;;;;;;;7.27;1.83;;;16.70;99.90;;;;;;5066708;28;20406;-75
2022/11/02 10:58:55;;;;;;;9.87;2.80;;;16.70;99.90;;;;;;5117517;28;20968;-73
2022/11/02 11:01:20;;;;;;;6.13;2.10;;;16.80;99.90;;;;;;5117447;28;20843;-73
2022/11/02 11:04:18;;;;;;;5.03;2.03;;;16.90;99.90;;;;;;5116986;28;20547;-73
2022/11/02 11:06:44;;;;;;;5.87;1.77;;;17.00;99.90;;;;;;5087099;28;20248;-73
2022/11/02 11:09:17;;;;;;;5.67;1.93;;;17.10;99.90;;;;;;5096770;28;21028;-72
2022/11/02 11:12:00;;;;;;;5.13;2.10;;;17.20;99.90;;;;;;5097085;28;20153;-73
2022/11/02 11:14:28;;;;;;;5.80;2.13;;;17.70;99.90;;;;;;5097026;28;20483;-73
2022/11/02 11:16:58;;;;;;;5.93;2.00;;;17.70;99.90;;;;;;5097191;28;20407;-74
2022/11/02 11:19:34;;;;;;;5.97;2.33;;;17.70;99.90;;;;;;5096682;22;20870;-72
2022/11/02 11:22:01;;;;;;;5.47;1.77;;;17.80;99.90;;;;;;5056931;28;20873;-72
2022/11/02 11:24:32;;;;;;;4.33;2.07;;;17.60;99.90;;;;;;5055053;28;20405;-72
2022/11/02 11:27:01;;;;;;;8.13;2.40;;;17.40;99.90;;;;;;5056206;28;20409;-72
2022/11/02 11:29:31;;;;;;;4.67;2.37;;;17.10;99.90;;;;;;5065621;28;20427;-72
2022/11/02 11:31:58;;;;;;;4.37;1.90;;;17.00;99.90;;;;;;5061678;28;20432;-72
2022/11/02 11:34:27;;;;;;;5.07;1.50;;;17.20;99.90;;;;;;5055773;28;20810;-72
2022/11/02 11:37:02;;;;;;;4.23;1.77;;;17.60;99.90;;;;;;5056219;28;20427;-71
2022/11/02 11:39:30;;;;;;;4.50;2.00;;;18.60;99.90;;;;;;5054669;28;20441;-72
2022/11/02 11:41:57;;;;;;;3.60;2.03;;;18.90;99.90;;;;;;5056149;28;20405;-72
2022/11/02 11:44:23;;;;;;;4.07;1.70;;;19.50;99.90;;;;;;5056049;28;20401;-72
2022/11/02 11:46:52;;;;;;;8.00;2.20;;;20.90;99.90;;;;;;5055664;28;20434;-72
2022/11/02 11:49:31;;;;;;;6.13;2.70;;;22.50;97.50;;;;;;5055566;28;20508;-71
2022/11/02 11:51:59;;;;;;;4.13;2.17;;;23.20;95.70;;;;;;5054671;28;20411;-70
2022/11/02 11:54:26;;;;;;;5.00;1.87;;;23.80;93.80;;;;;;5055727;28;20458;-73
2022/11/02 11:56:58;;;;;;;5.27;1.87;;;24.00;93.20;;;;;;5055500;28;20410;-72
2022/11/02 11:59:47;;;;;;;5.20;1.70;;;24.30;91.50;;;;;;5055807;28;20918;-72
2022/11/02 12:02:28;;;;;;;4.87;2.00;;;24.70;91.00;;;;;;5065666;28;21029;-72
2022/11/02 12:05:14;;;;;;;3.47;1.37;;;24.70;88.90;;;;;;5055564;28;20439;-72
2022/11/02 12:07:49;;;;;;;3.50;1.90;;;24.20;90.30;;;;;;5055781;28;20405;-72
2022/11/02 12:10:47;;;;;;;6.60;2.50;;;23.10;91.00;;;;;;5055519;28;20427;-70
2022/11/02 12:13:34;;;;;;;10.10;2.40;;;22.20;92.20;;;;;;5049649;28;20459;-72
2022/11/02 12:16:24;;;;;;;4.10;1.40;;;22.80;91.20;;;;;;5055724;28;20504;-71
2022/11/02 12:19:31;;;;;;;4.43;2.23;;;22.30;91.30;;;;;;5055237;28;20504;-72
2022/11/02 12:22:17;;;;;;;4.80;1.97;;;21.50;92.00;;;;;;5064133;28;20396;-72
2022/11/02 12:25:04;;;;;;;5.00;2.10;;;21.70;91.20;;;;;;5075584;28;20472;-71
2022/11/02 12:28:00;;;;;;;6.07;1.97;;;22.40;90.00;;;;;;5075816;28;20381;-72
2022/11/02 12:30:58;;;;;;;3.00;1.50;;;22.30;89.90;;;;;;5075194;28;20455;-73
2022/11/02 12:33:32;;;;;;;3.50;1.47;;;22.70;89.30;;;;;;5074407;28;20521;-72
2022/11/02 12:36:15;;;;;;;5.57;1.97;;;23.30;86.30;;;;;;5057496;28;20440;-73
2022/11/02 12:39:03;;;;;;;3.47;1.60;;;23.60;84.90;;;;;;5075107;28;20420;-72
2022/11/02 12:41:40;;;;;;;4.27;2.00;;;24.20;81.60;;;;;;5075737;28;20387;-72
2022/11/02 12:44:59;;;;;;;3.20;1.87;;;24.90;82.00;;;;;;5076587;28;20400;-73
2022/11/02 12:47:56;;;;;;;5.00;2.03;;;26.80;76.10;;;;;;4993279;28;20523;-73
2022/11/02 12:50:50;;;;;;;3.50;1.70;;;28.10;66.70;;;;;;4993136;28;20431;-72
2022/11/02 12:53:39;;;;;;;4.73;1.50;;;26.60;69.90;;;;;;5064020;28;20459;-73
2022/11/02 12:56:10;;;;;;;2.77;1.60;;;28.00;67.30;;;;;;5073252;28;20513;-72
2022/11/02 12:58:39;;;;;;;3.53;1.70;;;27.10;63.60;;;;;;5074763;28;20901;-73
2022/11/02 13:01:35;;;;;;;4.03;1.90;;;27.00;66.30;;;;;;5074093;28;20405;-73
2022/11/02 13:04:17;;;;;;;5.23;2.10;;;26.60;64.60;;;;;;5074247;28;20388;-73
2022/11/02 13:06:49;;;;;;;6.90;2.03;;;26.30;64.80;;;;;;5074749;28;20454;-73
2022/11/02 13:09:33;;;;;;;2.50;1.57;;;27.50;63.00;;;;;;5073000;28;20432;-73
2022/11/02 13:12:13;;;;;;;5.03;1.87;;;26.50;62.10;;;;;;5073069;28;20906;-73
2022/11/02 13:14:42;;;;;;;4.23;2.07;;;26.60;63.50;;;;;;5056374;28;20957;-73
2022/11/02 13:17:26;;;;;;;5.93;1.83;;;26.30;63.10;;;;;;5074145;28;20405;-73
2022/11/02 13:19:57;;;;;;;3.43;2.17;;;26.70;63.20;;;;;;5073984;28;20447;-72
2022/11/02 13:22:33;;;;;;;7.57;2.23;;;28.50;60.00;;;;;;5074117;28;20431;-73
2022/11/02 13:25:25;;;;;;;5.80;1.90;;;27.80;59.60;;;;;;5074148;28;20390;-72